sensor_id;sensor_type;location;lat;lon;timestamp;P1;durP1;ratioP1;P2;durP2;ratioP2
80307;SDS011;69616;43.522;1.348;2023-06-05T00:02:09;5.50;;;2.17;;
80307;SDS011;69616;43.522;1.348;2023-06-05T00:04:35;5.63;;;1.90;;
80307;SDS011;69616;43.522;1.348;2023-06-05T00:07:04;6.65;;;2.20;;
80307;SDS011;69616;43.522;1.348;2023-06-05T00:09:30;8.10;;;2.00;;
80307;SDS011;69616;43.522;1.348;2023-06-05T00:11:56;6.53;;;2.07;;
80307;SDS011;69616;43.522;1.348;2023-06-05T00:14:21;7.43;;;1.87;;
80307;SDS011;69616;43.522;1.348;2023-06-05T00:16:46;8.30;;;2.20;;
80307;SDS011;69616;43.522;1.348;2023-06-05T00:19:12;6.73;;;2.33;;
80307;SDS011;69616;43.522;1.348;2023-06-05T00:21:37;5.40;;;2.03;;
80307;SDS011;69616;43.522;1.348;2023-06-05T00:24:03;6.40;;;2.13;;
80307;SDS011;69616;43.522;1.348;2023-06-05T00:26:28;7.20;;;2.00;;
80307;SDS011;69616;43.522;1.348;2023-06-05T00:28:54;5.90;;;2.20;;
80307;SDS011;69616;43.522;1.348;2023-06-05T00:31:19;6.33;;;2.33;;
80307;SDS011;69616;43.522;1.348;2023-06-05T00:33:47;6.45;;;2.08;;
80307;SDS011;69616;43.522;1.348;2023-06-05T00:36:13;5.18;;;2.00;;
80307;SDS011;69616;43.522;1.348;2023-06-05T00:38:39;7.23;;;2.20;;
80307;SDS011;69616;43.522;1.348;2023-06-05T00:41:04;8.30;;;2.33;;
80307;SDS011;69616;43.522;1.348;2023-06-05T00:43:30;7.38;;;2.20;;
80307;SDS011;69616;43.522;1.348;2023-06-05T00:45:57;6.60;;;2.20;;
80307;SDS011;69616;43.522;1.348;2023-06-05T00:48:27;6.75;;;2.20;;
80307;SDS011;69616;43.522;1.348;2023-06-05T00:50:53;7.07;;;2.70;;
80307;SDS011;69616;43.522;1.348;2023-06-05T00:53:19;5.75;;;2.08;;
80307;SDS011;69616;43.522;1.348;2023-06-05T00:55:45;6.03;;;2.10;;
80307;SDS011;69616;43.522;1.348;2023-06-05T00:58:10;5.60;;;2.10;;
80307;SDS011;69616;43.522;1.348;2023-06-05T01:00:35;5.93;;;2.00;;
80307;SDS011;69616;43.522;1.348;2023-06-05T01:03:01;6.50;;;2.60;;
80307;SDS011;69616;43.522;1.348;2023-06-05T01:05:27;6.30;;;2.53;;
80307;SDS011;69616;43.522;1.348;2023-06-05T01:07:54;6.90;;;2.60;;
80307;SDS011;69616;43.522;1.348;2023-06-05T01:10:19;6.10;;;2.60;;
80307;SDS011;69616;43.522;1.348;2023-06-05T01:15:29;7.65;;;2.30;;
80307;SDS011;69616;43.522;1.348;2023-06-05T01:17:57;5.57;;;2.40;;
80307;SDS011;69616;43.522;1.348;2023-06-05T01:20:23;5.60;;;2.50;;
80307;SDS011;69616;43.522;1.348;2023-06-05T01:22:57;5.45;;;2.38;;
80307;SDS011;69616;43.522;1.348;2023-06-05T01:25:22;5.93;;;2.27;;
80307;SDS011;69616;43.522;1.348;2023-06-05T01:27:52;5.30;;;2.30;;
80307;SDS011;69616;43.522;1.348;2023-06-05T01:33:03;5.82;;;2.38;;
80307;SDS011;69616;43.522;1.348;2023-06-05T01:35:42;5.97;;;2.42;;
80307;SDS011;69616;43.522;1.348;2023-06-05T01:38:10;7.28;;;2.38;;
80307;SDS011;69616;43.522;1.348;2023-06-05T01:40:36;7.43;;;2.50;;
80307;SDS011;69616;43.522;1.348;2023-06-05T01:43:02;6.90;;;2.75;;
80307;SDS011;69616;43.522;1.348;2023-06-05T01:45:30;7.07;;;2.90;;
80307;SDS011;69616;43.522;1.348;2023-06-05T01:47:57;6.43;;;2.42;;
80307;SDS011;69616;43.522;1.348;2023-06-05T01:50:22;7.03;;;2.80;;
80307;SDS011;69616;43.522;1.348;2023-06-05T01:52:49;5.28;;;2.50;;
80307;SDS011;69616;43.522;1.348;2023-06-05T01:55:18;5.25;;;2.70;;
80307;SDS011;69616;43.522;1.348;2023-06-05T01:57:48;6.93;;;2.55;;
80307;SDS011;69616;43.522;1.348;2023-06-05T02:00:15;7.43;;;2.50;;
80307;SDS011;69616;43.522;1.348;2023-06-05T02:02:50;7.47;;;2.63;;
80307;SDS011;69616;43.522;1.348;2023-06-05T02:05:16;5.82;;;2.55;;
80307;SDS011;69616;43.522;1.348;2023-06-05T02:07:46;7.40;;;2.90;;
80307;SDS011;69616;43.522;1.348;2023-06-05T02:10:14;8.73;;;3.00;;
80307;SDS011;69616;43.522;1.348;2023-06-05T02:12:40;5.95;;;2.50;;
80307;SDS011;69616;43.522;1.348;2023-06-05T02:15:06;7.85;;;2.70;;
80307;SDS011;69616;43.522;1.348;2023-06-05T02:17:33;6.45;;;2.67;;
80307;SDS011;69616;43.522;1.348;2023-06-05T02:19:59;5.50;;;2.63;;
80307;SDS011;69616;43.522;1.348;2023-06-05T02:22:25;6.00;;;3.08;;
80307;SDS011;69616;43.522;1.348;2023-06-05T02:24:51;7.70;;;3.13;;
80307;SDS011;69616;43.522;1.348;2023-06-05T02:27:17;8.60;;;3.17;;
80307;SDS011;69616;43.522;1.348;2023-06-05T02:29:43;5.40;;;2.42;;
80307;SDS011;69616;43.522;1.348;2023-06-05T02:32:08;7.70;;;2.97;;
80307;SDS011;69616;43.522;1.348;2023-06-05T02:34:34;6.87;;;3.00;;
80307;SDS011;69616;43.522;1.348;2023-06-05T02:36:59;6.23;;;2.90;;
80307;SDS011;69616;43.522;1.348;2023-06-05T02:39:24;7.53;;;3.20;;
80307;SDS011;69616;43.522;1.348;2023-06-05T02:41:51;7.93;;;3.05;;
80307;SDS011;69616;43.522;1.348;2023-06-05T02:44:16;7.23;;;2.87;;
80307;SDS011;69616;43.522;1.348;2023-06-05T02:46:42;7.95;;;2.88;;
80307;SDS011;69616;43.522;1.348;2023-06-05T02:49:07;9.53;;;3.00;;
80307;SDS011;69616;43.522;1.348;2023-06-05T02:51:32;8.93;;;3.10;;
80307;SDS011;69616;43.522;1.348;2023-06-05T02:53:58;8.97;;;3.53;;
80307;SDS011;69616;43.522;1.348;2023-06-05T02:56:23;6.83;;;3.37;;
80307;SDS011;69616;43.522;1.348;2023-06-05T02:58:51;7.20;;;3.20;;
80307;SDS011;69616;43.522;1.348;2023-06-05T03:01:17;5.93;;;2.97;;
80307;SDS011;69616;43.522;1.348;2023-06-05T03:03:42;8.47;;;2.90;;
80307;SDS011;69616;43.522;1.348;2023-06-05T03:06:07;7.57;;;3.47;;
80307;SDS011;69616;43.522;1.348;2023-06-05T03:08:33;7.53;;;3.57;;
80307;SDS011;69616;43.522;1.348;2023-06-05T03:11:00;7.53;;;3.50;;
80307;SDS011;69616;43.522;1.348;2023-06-05T03:13:26;10.98;;;3.58;;
80307;SDS011;69616;43.522;1.348;2023-06-05T03:15:52;7.37;;;3.40;;
80307;SDS011;69616;43.522;1.348;2023-06-05T03:18:22;8.00;;;3.22;;
80307;SDS011;69616;43.522;1.348;2023-06-05T03:20:49;6.68;;;3.60;;
80307;SDS011;69616;43.522;1.348;2023-06-05T03:23:15;7.68;;;3.47;;
80307;SDS011;69616;43.522;1.348;2023-06-05T03:25:41;7.60;;;3.90;;
80307;SDS011;69616;43.522;1.348;2023-06-05T03:28:06;7.93;;;3.88;;
80307;SDS011;69616;43.522;1.348;2023-06-05T03:30:32;9.57;;;3.60;;
80307;SDS011;69616;43.522;1.348;2023-06-05T03:32:57;8.70;;;3.50;;
80307;SDS011;69616;43.522;1.348;2023-06-05T03:35:23;12.77;;;4.07;;
80307;SDS011;69616;43.522;1.348;2023-06-05T03:37:48;7.70;;;3.27;;
80307;SDS011;69616;43.522;1.348;2023-06-05T03:40:13;7.77;;;3.37;;
80307;SDS011;69616;43.522;1.348;2023-06-05T03:42:39;10.60;;;3.90;;
80307;SDS011;69616;43.522;1.348;2023-06-05T03:45:04;8.30;;;3.97;;
80307;SDS011;69616;43.522;1.348;2023-06-05T03:47:31;7.68;;;3.50;;
80307;SDS011;69616;43.522;1.348;2023-06-05T03:49:59;9.57;;;3.78;;
80307;SDS011;69616;43.522;1.348;2023-06-05T03:52:25;8.32;;;4.05;;
80307;SDS011;69616;43.522;1.348;2023-06-05T03:54:51;8.17;;;3.67;;
80307;SDS011;69616;43.522;1.348;2023-06-05T03:57:20;8.60;;;4.15;;
80307;SDS011;69616;43.522;1.348;2023-06-05T03:59:46;9.30;;;3.73;;
80307;SDS011;69616;43.522;1.348;2023-06-05T04:02:14;8.38;;;3.80;;
80307;SDS011;69616;43.522;1.348;2023-06-05T04:04:40;8.60;;;3.70;;
80307;SDS011;69616;43.522;1.348;2023-06-05T04:07:05;12.18;;;4.10;;
80307;SDS011;69616;43.522;1.348;2023-06-05T04:09:31;10.40;;;4.03;;
80307;SDS011;69616;43.522;1.348;2023-06-05T04:11:57;9.43;;;3.67;;
80307;SDS011;69616;43.522;1.348;2023-06-05T04:14:23;9.55;;;4.47;;
80307;SDS011;69616;43.522;1.348;2023-06-05T04:16:50;9.90;;;4.33;;
80307;SDS011;69616;43.522;1.348;2023-06-05T04:19:15;11.75;;;4.53;;
80307;SDS011;69616;43.522;1.348;2023-06-05T04:21:41;10.00;;;4.83;;
80307;SDS011;69616;43.522;1.348;2023-06-05T04:24:09;9.10;;;4.43;;
80307;SDS011;69616;43.522;1.348;2023-06-05T04:26:36;11.63;;;4.85;;
80307;SDS011;69616;43.522;1.348;2023-06-05T04:29:02;12.63;;;4.87;;
80307;SDS011;69616;43.522;1.348;2023-06-05T04:31:34;11.43;;;4.50;;
80307;SDS011;69616;43.522;1.348;2023-06-05T04:34:00;11.32;;;4.38;;
80307;SDS011;69616;43.522;1.348;2023-06-05T04:36:27;10.57;;;4.20;;
80307;SDS011;69616;43.522;1.348;2023-06-05T04:38:53;13.13;;;4.18;;
80307;SDS011;69616;43.522;1.348;2023-06-05T04:41:19;10.32;;;4.18;;
80307;SDS011;69616;43.522;1.348;2023-06-05T04:43:46;9.87;;;4.17;;
80307;SDS011;69616;43.522;1.348;2023-06-05T04:46:11;11.20;;;4.50;;
80307;SDS011;69616;43.522;1.348;2023-06-05T04:48:37;12.63;;;4.47;;
80307;SDS011;69616;43.522;1.348;2023-06-05T04:51:02;16.23;;;5.57;;
80307;SDS011;69616;43.522;1.348;2023-06-05T04:53:28;10.20;;;4.88;;
80307;SDS011;69616;43.522;1.348;2023-06-05T04:55:56;12.38;;;4.95;;
80307;SDS011;69616;43.522;1.348;2023-06-05T04:58:25;12.00;;;4.93;;
80307;SDS011;69616;43.522;1.348;2023-06-05T05:00:51;9.57;;;4.57;;
80307;SDS011;69616;43.522;1.348;2023-06-05T05:03:16;9.00;;;4.82;;
80307;SDS011;69616;43.522;1.348;2023-06-05T05:05:42;12.20;;;5.17;;
80307;SDS011;69616;43.522;1.348;2023-06-05T05:08:08;11.35;;;4.60;;
80307;SDS011;69616;43.522;1.348;2023-06-05T05:10:33;10.77;;;4.20;;
80307;SDS011;69616;43.522;1.348;2023-06-05T05:12:59;14.20;;;4.53;;
80307;SDS011;69616;43.522;1.348;2023-06-05T05:15:27;8.95;;;4.50;;
80307;SDS011;69616;43.522;1.348;2023-06-05T05:17:54;10.63;;;4.60;;
80307;SDS011;69616;43.522;1.348;2023-06-05T05:20:21;8.10;;;4.35;;
80307;SDS011;69616;43.522;1.348;2023-06-05T05:22:46;11.20;;;4.50;;
80307;SDS011;69616;43.522;1.348;2023-06-05T05:25:12;11.40;;;4.55;;
80307;SDS011;69616;43.522;1.348;2023-06-05T05:27:37;9.93;;;4.27;;
80307;SDS011;69616;43.522;1.348;2023-06-05T05:30:03;10.53;;;4.67;;
80307;SDS011;69616;43.522;1.348;2023-06-05T05:32:29;10.30;;;4.13;;
80307;SDS011;69616;43.522;1.348;2023-06-05T05:34:55;14.57;;;4.67;;
80307;SDS011;69616;43.522;1.348;2023-06-05T05:37:20;10.47;;;4.53;;
80307;SDS011;69616;43.522;1.348;2023-06-05T05:39:45;10.48;;;4.90;;
80307;SDS011;69616;43.522;1.348;2023-06-05T05:42:11;9.57;;;4.20;;
80307;SDS011;69616;43.522;1.348;2023-06-05T05:44:36;11.63;;;4.13;;
80307;SDS011;69616;43.522;1.348;2023-06-05T05:47:02;9.37;;;4.50;;
80307;SDS011;69616;43.522;1.348;2023-06-05T05:49:27;9.98;;;4.90;;
80307;SDS011;69616;43.522;1.348;2023-06-05T05:51:53;11.90;;;4.77;;
80307;SDS011;69616;43.522;1.348;2023-06-05T05:54:18;9.93;;;5.27;;
80307;SDS011;69616;43.522;1.348;2023-06-05T05:56:44;10.57;;;5.03;;
80307;SDS011;69616;43.522;1.348;2023-06-05T05:59:09;10.77;;;5.75;;
80307;SDS011;69616;43.522;1.348;2023-06-05T06:01:35;12.03;;;5.40;;
80307;SDS011;69616;43.522;1.348;2023-06-05T06:04:00;10.60;;;5.20;;
80307;SDS011;69616;43.522;1.348;2023-06-05T06:06:26;13.57;;;4.70;;
80307;SDS011;69616;43.522;1.348;2023-06-05T06:08:51;12.77;;;5.50;;
80307;SDS011;69616;43.522;1.348;2023-06-05T06:11:17;10.90;;;4.87;;
80307;SDS011;69616;43.522;1.348;2023-06-05T06:13:43;11.40;;;5.40;;
80307;SDS011;69616;43.522;1.348;2023-06-05T06:16:08;8.77;;;4.68;;
80307;SDS011;69616;43.522;1.348;2023-06-05T06:18:34;10.83;;;4.50;;
80307;SDS011;69616;43.522;1.348;2023-06-05T06:21:00;10.75;;;4.90;;
80307;SDS011;69616;43.522;1.348;2023-06-05T06:23:25;9.73;;;4.73;;
80307;SDS011;69616;43.522;1.348;2023-06-05T06:25:51;10.23;;;4.50;;
80307;SDS011;69616;43.522;1.348;2023-06-05T06:28:17;11.55;;;4.53;;
80307;SDS011;69616;43.522;1.348;2023-06-05T06:30:42;8.00;;;4.07;;
80307;SDS011;69616;43.522;1.348;2023-06-05T06:33:08;10.55;;;4.80;;
80307;SDS011;69616;43.522;1.348;2023-06-05T06:35:33;11.10;;;4.37;;
80307;SDS011;69616;43.522;1.348;2023-06-05T06:37:59;11.68;;;4.53;;
80307;SDS011;69616;43.522;1.348;2023-06-05T06:40:25;10.70;;;4.68;;
80307;SDS011;69616;43.522;1.348;2023-06-05T06:42:53;9.52;;;4.30;;
80307;SDS011;69616;43.522;1.348;2023-06-05T06:45:19;6.83;;;3.40;;
80307;SDS011;69616;43.522;1.348;2023-06-05T06:47:45;10.23;;;4.30;;
80307;SDS011;69616;43.522;1.348;2023-06-05T06:50:10;11.27;;;4.13;;
80307;SDS011;69616;43.522;1.348;2023-06-05T06:52:36;9.13;;;4.23;;
80307;SDS011;69616;43.522;1.348;2023-06-05T06:55:01;10.70;;;4.67;;
80307;SDS011;69616;43.522;1.348;2023-06-05T06:57:27;10.02;;;4.15;;
80307;SDS011;69616;43.522;1.348;2023-06-05T06:59:52;8.37;;;4.50;;
80307;SDS011;69616;43.522;1.348;2023-06-05T07:02:18;11.67;;;4.57;;
80307;SDS011;69616;43.522;1.348;2023-06-05T07:04:45;7.68;;;3.90;;
80307;SDS011;69616;43.522;1.348;2023-06-05T07:07:15;10.13;;;4.70;;
80307;SDS011;69616;43.522;1.348;2023-06-05T07:09:42;10.07;;;5.10;;
80307;SDS011;69616;43.522;1.348;2023-06-05T07:12:08;10.88;;;4.63;;
80307;SDS011;69616;43.522;1.348;2023-06-05T07:14:35;11.17;;;4.60;;
80307;SDS011;69616;43.522;1.348;2023-06-05T07:17:00;9.27;;;4.40;;
80307;SDS011;69616;43.522;1.348;2023-06-05T07:19:30;9.13;;;5.28;;
80307;SDS011;69616;43.522;1.348;2023-06-05T07:21:56;10.88;;;4.40;;
80307;SDS011;69616;43.522;1.348;2023-06-05T07:24:26;9.33;;;4.67;;
80307;SDS011;69616;43.522;1.348;2023-06-05T07:26:53;8.27;;;4.80;;
80307;SDS011;69616;43.522;1.348;2023-06-05T07:29:24;10.95;;;4.82;;
80307;SDS011;69616;43.522;1.348;2023-06-05T07:31:50;12.27;;;5.00;;
80307;SDS011;69616;43.522;1.348;2023-06-05T07:34:17;11.87;;;4.80;;
80307;SDS011;69616;43.522;1.348;2023-06-05T07:36:43;11.75;;;5.32;;
80307;SDS011;69616;43.522;1.348;2023-06-05T07:39:10;9.52;;;4.68;;
80307;SDS011;69616;43.522;1.348;2023-06-05T07:41:36;10.18;;;4.60;;
80307;SDS011;69616;43.522;1.348;2023-06-05T07:44:02;13.68;;;5.30;;
80307;SDS011;69616;43.522;1.348;2023-06-05T07:46:28;11.83;;;6.10;;
80307;SDS011;69616;43.522;1.348;2023-06-05T07:48:53;10.67;;;6.07;;
80307;SDS011;69616;43.522;1.348;2023-06-05T07:51:19;10.80;;;6.47;;
80307;SDS011;69616;43.522;1.348;2023-06-05T07:53:45;13.48;;;6.00;;
80307;SDS011;69616;43.522;1.348;2023-06-05T07:56:11;11.80;;;5.67;;
80307;SDS011;69616;43.522;1.348;2023-06-05T07:58:37;11.00;;;5.25;;
80307;SDS011;69616;43.522;1.348;2023-06-05T08:01:03;10.95;;;5.55;;
80307;SDS011;69616;43.522;1.348;2023-06-05T08:03:32;12.73;;;5.40;;
80307;SDS011;69616;43.522;1.348;2023-06-05T08:05:57;11.03;;;5.50;;
80307;SDS011;69616;43.522;1.348;2023-06-05T08:08:23;11.32;;;5.43;;
80307;SDS011;69616;43.522;1.348;2023-06-05T08:10:48;12.67;;;5.67;;
80307;SDS011;69616;43.522;1.348;2023-06-05T08:13:14;13.80;;;5.93;;
80307;SDS011;69616;43.522;1.348;2023-06-05T08:15:40;9.43;;;5.55;;
80307;SDS011;69616;43.522;1.348;2023-06-05T08:18:05;9.97;;;5.70;;
80307;SDS011;69616;43.522;1.348;2023-06-05T08:20:30;13.87;;;5.63;;
80307;SDS011;69616;43.522;1.348;2023-06-05T08:22:56;12.87;;;7.00;;
80307;SDS011;69616;43.522;1.348;2023-06-05T08:25:24;15.15;;;7.10;;
80307;SDS011;69616;43.522;1.348;2023-06-05T08:27:50;11.65;;;5.97;;
80307;SDS011;69616;43.522;1.348;2023-06-05T08:30:16;13.50;;;6.35;;
80307;SDS011;69616;43.522;1.348;2023-06-05T08:32:42;9.13;;;5.57;;
80307;SDS011;69616;43.522;1.348;2023-06-05T08:35:08;12.20;;;5.75;;
80307;SDS011;69616;43.522;1.348;2023-06-05T08:37:34;11.00;;;6.00;;
80307;SDS011;69616;43.522;1.348;2023-06-05T08:40:00;11.23;;;6.50;;
80307;SDS011;69616;43.522;1.348;2023-06-05T08:42:31;13.95;;;6.60;;
80307;SDS011;69616;43.522;1.348;2023-06-05T08:44:56;11.27;;;5.88;;
80307;SDS011;69616;43.522;1.348;2023-06-05T08:47:22;11.37;;;5.80;;
80307;SDS011;69616;43.522;1.348;2023-06-05T08:49:51;10.30;;;6.25;;
80307;SDS011;69616;43.522;1.348;2023-06-05T08:52:19;10.13;;;5.32;;
80307;SDS011;69616;43.522;1.348;2023-06-05T08:54:46;9.90;;;5.87;;
80307;SDS011;69616;43.522;1.348;2023-06-05T08:57:12;10.85;;;6.70;;
80307;SDS011;69616;43.522;1.348;2023-06-05T08:59:37;13.20;;;6.40;;
80307;SDS011;69616;43.522;1.348;2023-06-05T09:02:05;11.20;;;5.95;;
80307;SDS011;69616;43.522;1.348;2023-06-05T09:04:30;10.27;;;6.07;;
80307;SDS011;69616;43.522;1.348;2023-06-05T09:06:57;10.05;;;5.88;;
80307;SDS011;69616;43.522;1.348;2023-06-05T09:09:23;12.85;;;6.60;;
80307;SDS011;69616;43.522;1.348;2023-06-05T09:12:00;11.97;;;6.43;;
80307;SDS011;69616;43.522;1.348;2023-06-05T09:14:30;10.95;;;6.20;;
80307;SDS011;69616;43.522;1.348;2023-06-05T09:16:56;13.15;;;6.72;;
80307;SDS011;69616;43.522;1.348;2023-06-05T09:19:23;9.85;;;6.38;;
80307;SDS011;69616;43.522;1.348;2023-06-05T09:21:52;9.82;;;5.32;;
80307;SDS011;69616;43.522;1.348;2023-06-05T09:24:20;8.57;;;5.20;;
80307;SDS011;69616;43.522;1.348;2023-06-05T09:31:56;10.27;;;5.40;;
80307;SDS011;69616;43.522;1.348;2023-06-05T09:34:23;11.25;;;6.38;;
80307;SDS011;69616;43.522;1.348;2023-06-05T09:36:54;10.80;;;5.90;;
80307;SDS011;69616;43.522;1.348;2023-06-05T09:39:22;12.23;;;6.10;;
80307;SDS011;69616;43.522;1.348;2023-06-05T09:41:50;11.85;;;5.63;;
80307;SDS011;69616;43.522;1.348;2023-06-05T09:44:17;10.13;;;6.07;;
80307;SDS011;69616;43.522;1.348;2023-06-05T09:51:57;8.77;;;5.38;;
80307;SDS011;69616;43.522;1.348;2023-06-05T09:54:27;9.90;;;5.47;;
80307;SDS011;69616;43.522;1.348;2023-06-05T09:56:56;10.27;;;4.60;;
80307;SDS011;69616;43.522;1.348;2023-06-05T09:59:25;11.82;;;6.00;;
80307;SDS011;69616;43.522;1.348;2023-06-05T10:01:56;13.53;;;5.63;;
80307;SDS011;69616;43.522;1.348;2023-06-05T10:04:28;11.13;;;5.57;;
80307;SDS011;69616;43.522;1.348;2023-06-05T10:06:57;9.60;;;4.88;;
80307;SDS011;69616;43.522;1.348;2023-06-05T10:09:26;10.38;;;4.93;;
80307;SDS011;69616;43.522;1.348;2023-06-05T10:11:52;7.28;;;4.50;;
80307;SDS011;69616;43.522;1.348;2023-06-05T10:14:19;8.97;;;4.90;;
80307;SDS011;69616;43.522;1.348;2023-06-05T10:16:48;7.65;;;4.90;;
80307;SDS011;69616;43.522;1.348;2023-06-05T10:19:15;8.15;;;4.65;;
80307;SDS011;69616;43.522;1.348;2023-06-05T10:21:43;9.50;;;5.15;;
80307;SDS011;69616;43.522;1.348;2023-06-05T10:24:30;8.13;;;5.20;;
80307;SDS011;69616;43.522;1.348;2023-06-05T10:32:45;8.02;;;5.22;;
80307;SDS011;69616;43.522;1.348;2023-06-05T10:40:48;9.53;;;5.20;;
80307;SDS011;69616;43.522;1.348;2023-06-05T10:43:25;9.23;;;4.65;;
80307;SDS011;69616;43.522;1.348;2023-06-05T10:45:50;7.32;;;4.50;;
80307;SDS011;69616;43.522;1.348;2023-06-05T10:48:16;7.35;;;4.47;;
80307;SDS011;69616;43.522;1.348;2023-06-05T10:50:43;11.70;;;4.85;;
80307;SDS011;69616;43.522;1.348;2023-06-05T10:53:41;7.50;;;4.10;;
80307;SDS011;69616;43.522;1.348;2023-06-05T10:56:06;7.63;;;4.43;;
80307;SDS011;69616;43.522;1.348;2023-06-05T10:58:32;8.53;;;3.63;;
80307;SDS011;69616;43.522;1.348;2023-06-05T11:01:16;10.07;;;4.13;;
80307;SDS011;69616;43.522;1.348;2023-06-05T11:03:54;7.53;;;4.00;;
80307;SDS011;69616;43.522;1.348;2023-06-05T11:06:21;6.53;;;3.75;;
80307;SDS011;69616;43.522;1.348;2023-06-05T11:09:06;6.40;;;4.00;;
80307;SDS011;69616;43.522;1.348;2023-06-05T11:14:44;9.68;;;3.83;;
80307;SDS011;69616;43.522;1.348;2023-06-05T11:17:26;7.47;;;3.73;;
80307;SDS011;69616;43.522;1.348;2023-06-05T11:19:53;7.05;;;3.67;;
80307;SDS011;69616;43.522;1.348;2023-06-05T11:22:18;7.90;;;3.57;;
80307;SDS011;69616;43.522;1.348;2023-06-05T11:24:43;8.25;;;3.83;;
80307;SDS011;69616;43.522;1.348;2023-06-05T11:27:40;11.13;;;4.50;;
80307;SDS011;69616;43.522;1.348;2023-06-05T11:30:10;10.20;;;4.10;;
80307;SDS011;69616;43.522;1.348;2023-06-05T11:32:41;7.68;;;3.72;;
80307;SDS011;69616;43.522;1.348;2023-06-05T11:35:07;11.57;;;4.17;;
80307;SDS011;69616;43.522;1.348;2023-06-05T11:37:37;7.63;;;4.10;;
80307;SDS011;69616;43.522;1.348;2023-06-05T11:40:05;8.82;;;4.00;;
80307;SDS011;69616;43.522;1.348;2023-06-05T11:42:34;8.23;;;4.10;;
80307;SDS011;69616;43.522;1.348;2023-06-05T11:44:59;7.47;;;3.70;;
80307;SDS011;69616;43.522;1.348;2023-06-05T11:47:25;9.83;;;4.63;;
80307;SDS011;69616;43.522;1.348;2023-06-05T11:49:53;8.13;;;3.90;;
80307;SDS011;69616;43.522;1.348;2023-06-05T11:52:19;8.87;;;4.07;;
80307;SDS011;69616;43.522;1.348;2023-06-05T11:54:47;5.93;;;3.63;;
80307;SDS011;69616;43.522;1.348;2023-06-05T11:57:43;7.40;;;3.60;;
80307;SDS011;69616;43.522;1.348;2023-06-05T12:00:10;6.85;;;3.72;;
80307;SDS011;69616;43.522;1.348;2023-06-05T12:02:36;8.20;;;3.75;;
80307;SDS011;69616;43.522;1.348;2023-06-05T12:05:05;9.90;;;3.50;;
80307;SDS011;69616;43.522;1.348;2023-06-05T12:07:32;8.48;;;3.90;;
80307;SDS011;69616;43.522;1.348;2023-06-05T12:10:01;6.32;;;3.22;;
80307;SDS011;69616;43.522;1.348;2023-06-05T12:12:28;6.97;;;4.10;;
80307;SDS011;69616;43.522;1.348;2023-06-05T12:14:54;7.93;;;3.57;;
80307;SDS011;69616;43.522;1.348;2023-06-05T12:17:20;9.20;;;3.97;;
80307;SDS011;69616;43.522;1.348;2023-06-05T12:19:53;7.00;;;3.45;;
80307;SDS011;69616;43.522;1.348;2023-06-05T12:22:19;10.27;;;3.58;;
80307;SDS011;69616;43.522;1.348;2023-06-05T12:24:45;6.70;;;3.47;;
80307;SDS011;69616;43.522;1.348;2023-06-05T12:27:11;6.77;;;3.80;;
80307;SDS011;69616;43.522;1.348;2023-06-05T12:29:37;5.93;;;3.33;;
80307;SDS011;69616;43.522;1.348;2023-06-05T12:32:19;7.45;;;3.40;;
80307;SDS011;69616;43.522;1.348;2023-06-05T12:34:49;6.75;;;3.47;;
80307;SDS011;69616;43.522;1.348;2023-06-05T12:37:25;6.88;;;3.85;;
80307;SDS011;69616;43.522;1.348;2023-06-05T12:39:59;7.30;;;3.43;;
80307;SDS011;69616;43.522;1.348;2023-06-05T12:42:26;6.95;;;3.97;;
80307;SDS011;69616;43.522;1.348;2023-06-05T12:44:53;9.43;;;3.80;;
80307;SDS011;69616;43.522;1.348;2023-06-05T12:47:19;7.63;;;4.10;;
80307;SDS011;69616;43.522;1.348;2023-06-05T12:49:45;9.80;;;3.83;;
80307;SDS011;69616;43.522;1.348;2023-06-05T12:52:11;6.18;;;3.45;;
80307;SDS011;69616;43.522;1.348;2023-06-05T12:54:37;7.15;;;3.78;;
80307;SDS011;69616;43.522;1.348;2023-06-05T12:57:04;7.47;;;3.67;;
80307;SDS011;69616;43.522;1.348;2023-06-05T12:59:31;7.63;;;3.80;;
80307;SDS011;69616;43.522;1.348;2023-06-05T13:01:57;8.10;;;3.92;;
80307;SDS011;69616;43.522;1.348;2023-06-05T13:04:22;8.57;;;3.23;;
80307;SDS011;69616;43.522;1.348;2023-06-05T13:06:49;6.45;;;3.20;;
80307;SDS011;69616;43.522;1.348;2023-06-05T13:09:15;7.03;;;2.90;;
80307;SDS011;69616;43.522;1.348;2023-06-05T13:11:40;5.22;;;3.22;;
80307;SDS011;69616;43.522;1.348;2023-06-05T13:14:06;8.90;;;3.10;;
80307;SDS011;69616;43.522;1.348;2023-06-05T13:16:31;10.00;;;3.30;;
80307;SDS011;69616;43.522;1.348;2023-06-05T13:18:57;8.00;;;3.33;;
80307;SDS011;69616;43.522;1.348;2023-06-05T13:21:22;6.20;;;3.20;;
80307;SDS011;69616;43.522;1.348;2023-06-05T13:23:47;7.20;;;3.60;;
80307;SDS011;69616;43.522;1.348;2023-06-05T13:26:13;7.07;;;3.50;;
80307;SDS011;69616;43.522;1.348;2023-06-05T13:28:39;6.47;;;2.80;;
80307;SDS011;69616;43.522;1.348;2023-06-05T13:31:04;6.93;;;2.90;;
80307;SDS011;69616;43.522;1.348;2023-06-05T13:33:31;6.22;;;3.10;;
80307;SDS011;69616;43.522;1.348;2023-06-05T13:35:58;7.38;;;2.83;;
80307;SDS011;69616;43.522;1.348;2023-06-05T13:38:24;6.77;;;2.80;;
80307;SDS011;69616;43.522;1.348;2023-06-05T13:40:49;5.53;;;3.00;;
80307;SDS011;69616;43.522;1.348;2023-06-05T13:43:16;8.05;;;3.20;;
80307;SDS011;69616;43.522;1.348;2023-06-05T13:45:42;6.82;;;2.88;;
80307;SDS011;69616;43.522;1.348;2023-06-05T13:48:07;7.47;;;3.10;;
80307;SDS011;69616;43.522;1.348;2023-06-05T13:50:33;6.60;;;3.10;;
80307;SDS011;69616;43.522;1.348;2023-06-05T13:52:59;5.30;;;3.05;;
80307;SDS011;69616;43.522;1.348;2023-06-05T13:55:24;6.40;;;2.93;;
80307;SDS011;69616;43.522;1.348;2023-06-05T13:57:49;10.57;;;3.40;;
80307;SDS011;69616;43.522;1.348;2023-06-05T14:00:15;9.23;;;3.35;;
80307;SDS011;69616;43.522;1.348;2023-06-05T14:02:41;7.30;;;3.07;;
80307;SDS011;69616;43.522;1.348;2023-06-05T14:05:06;6.03;;;2.90;;
80307;SDS011;69616;43.522;1.348;2023-06-05T14:07:33;6.70;;;3.03;;
80307;SDS011;69616;43.522;1.348;2023-06-05T14:09:59;8.10;;;3.00;;
80307;SDS011;69616;43.522;1.348;2023-06-05T14:12:24;9.30;;;3.00;;
80307;SDS011;69616;43.522;1.348;2023-06-05T14:14:50;10.30;;;3.17;;
80307;SDS011;69616;43.522;1.348;2023-06-05T14:17:16;6.85;;;2.75;;
80307;SDS011;69616;43.522;1.348;2023-06-05T14:19:41;7.37;;;2.83;;
80307;SDS011;69616;43.522;1.348;2023-06-05T14:22:07;6.70;;;2.90;;
80307;SDS011;69616;43.522;1.348;2023-06-05T14:24:33;8.73;;;3.00;;
80307;SDS011;69616;43.522;1.348;2023-06-05T14:26:58;7.27;;;3.20;;
80307;SDS011;69616;43.522;1.348;2023-06-05T14:29:24;7.00;;;3.10;;
80307;SDS011;69616;43.522;1.348;2023-06-05T14:31:49;9.35;;;3.22;;
80307;SDS011;69616;43.522;1.348;2023-06-05T14:34:15;6.37;;;2.73;;
80307;SDS011;69616;43.522;1.348;2023-06-05T14:36:41;6.37;;;2.90;;
80307;SDS011;69616;43.522;1.348;2023-06-05T14:39:07;5.28;;;2.70;;
80307;SDS011;69616;43.522;1.348;2023-06-05T14:41:32;5.47;;;2.47;;
80307;SDS011;69616;43.522;1.348;2023-06-05T14:43:58;7.93;;;3.17;;
80307;SDS011;69616;43.522;1.348;2023-06-05T14:46:24;5.40;;;2.78;;
80307;SDS011;69616;43.522;1.348;2023-06-05T14:48:49;7.40;;;2.87;;
80307;SDS011;69616;43.522;1.348;2023-06-05T14:51:16;5.00;;;1.87;;
80307;SDS011;69616;43.522;1.348;2023-06-05T14:53:41;6.38;;;2.55;;
80307;SDS011;69616;43.522;1.348;2023-06-05T14:56:07;5.33;;;2.60;;
80307;SDS011;69616;43.522;1.348;2023-06-05T14:58:33;8.43;;;3.20;;
80307;SDS011;69616;43.522;1.348;2023-06-05T15:00:59;4.80;;;2.50;;
80307;SDS011;69616;43.522;1.348;2023-06-05T15:03:24;6.93;;;2.80;;
80307;SDS011;69616;43.522;1.348;2023-06-05T15:05:50;5.47;;;2.20;;
80307;SDS011;69616;43.522;1.348;2023-06-05T15:08:15;6.87;;;2.10;;
80307;SDS011;69616;43.522;1.348;2023-06-05T15:10:40;5.80;;;2.37;;
80307;SDS011;69616;43.522;1.348;2023-06-05T15:13:06;4.50;;;2.23;;